Архив погоды в Угличе

Метеограмма Углич
Среда, 17 Октября
Время местн. Темп Ветер Видим Явления Облачность нижн/средн/верх Атм. давл. Влжн Точка росы ВНГО R Сост. почвы Tg s
Напр Скр Прв ур.ст ур.м изм
15:00 +11.2° штиль 0 - 30 км - облачно с прояснениями 759 770 -0.1 74% +6.7° 1.5 км - - - -
12:00 +10° З 1 - 30 км - облачно 759 770 +1.1 77% +6.1° 1 км - - - -
09:00 +8.2° З 1 - 30 км - облачно 758 769 +1.3 83% +5.5° - - - - -
06:00 +5.8° Ю-З 2 - 23 км - ясно 756 768 +0.7 89% +4.1° более 2.5 км - Влажная (без луж) - -
03:00 +7.1° Ю-З 1 - 23 км - ясно 756 767 +0.6 84% +4.6° более 2.5 км - - - -
00:00 +8.2° Ю,Ю-З 1 - 22 км - ясно 755 766 0 83% +5.5° более 2.5 км - - - -
Вторник, 16 Октября
Время местн. Темп Ветер Видим Явления Облачность нижн/средн/верх Атм. давл. Влжн Точка росы ВНГО R Сост. почвы Tg s
Напр Скр Прв ур.ст ур.м изм
21:00 +10.5° Ю-З 2 - 24 км - ясно 755 766 -0.3 73% +5.9° более 2.5 км - - - -
18:00 +12° Ю-З 2 - 30 км - переменная облачность 755 767 -0.5 68% +6.3° - - - - -
15:00 +14.8° Ю-З 3 - 30 км - облачно с прояснениями 756 767 -0.9 57% +6.4° более 2.5 км - - - -
12:00 +11.2° З,Ю-З 3 - 30 км - облачно с прояснениями 757 768 -0.7 71% +6.1° более 2.5 км - - - -
09:00 +7.1° Ю,Ю-З 2 - 30 км - облачно с прояснениями 758 769 0 89% +5.4° более 2.5 км - - - -
06:00 +6.1° Ю,Ю-З 2 - 23 км - ясно 758 769 -0.4 92% +4.9° более 2.5 км - Влажная (без луж) - -
03:00 +7° Ю-З 2 - 21 км - ясно 758 769 -0.1 93% +5.9° более 2.5 км - - - -
00:00 +8.5° Ю,Ю-З 2 - 23 км - ясно 758 769 +0.1 91% +7.1° более 2.5 км - - - -
Понедельник, 15 Октября
Время местн. Темп Ветер Видим Явления Облачность нижн/средн/верх Атм. давл. Влжн Точка росы ВНГО R Сост. почвы Tg s
Напр Скр Прв ур.ст ур.м изм
21:00 +9.8° Ю 1 - 23 км - переменная облачность 758 769 -0.4 89% +8.1° - - - - -
18:00 +11.1° Ю,Ю-З 2 - 30 км - незначительная облачность 758 769 -0.6 86% +8.8° - - - - -
15:00 +13.2° З,Ю-З 2 - 20 км небо без изменений {туман} ясно 759 770 -0.5 79% +9.6° более 2.5 км - - - -
12:00 +10.2° З 2 - 0.9 км туман ослабевает неба не видно 759 771 +0.5 94% +9.3° - - - - -
09:00 +8.3° З 2 - 0.6 км туман неба не видно 759 770 +0.7 94% +7.4° - - - - -
06:00 +8.5° Ю-З 2 - 23 км - ясно 758 770 +0.1 94% +7.6° более 2.5 км - Влажная (без луж) - -
03:00 +10.2° З 1 - 24 км - ясно 758 769 +0.2 89% +8.5° более 2.5 км - - - -
00:00 +10.5° З 1 - 20 км - ясно 758 769 +0.5 90% +9° более 2.5 км - - - -
Воскресенье, 14 Октября
Время местн. Темп Ветер Видим Явления Облачность нижн/средн/верх Атм. давл. Влжн Точка росы ВНГО R Сост. почвы Tg s
Напр Скр Прв ур.ст ур.м изм
21:00 +13.1° З 1 - 21 км - ясно 758 769 +0.4 77% +9.2° более 2.5 км - - - -
18:00 +12.4° Ю-З 1 - 30 км - переменная облачность 757 768 -0.3 84% +9.8° более 2.5 км - - - -
15:00 +15.7° З 2 - 30 км - облачно с прояснениями 757 768 -0.8 67% +9.7° - - - - -
12:00 +12.7° З,С-З 1 - 30 км - облачно с прояснениями 758 769 -0.1 78% +9° 1 км - - - -